Main page
METAR-TAF:

METAR-TAF

Airports :

Helsinki, Finland

Helsinki Airport

latitude: 60-19N, longitude: 024-58E, elevation: 51 m

Current weather observation

The report was made 17 minutes ago, at 16:50 UTC
Wind 4 kt from the Northwest
Temperature 13°C
Humidity 58%
Pressure 1007 hPa
Visibility 10 km or more
Few clouds at a height of 4000 ft
Broken clouds at a height of 6000 ft

METAR: EFHK 231650Z 31004KT 9999 FEW040 BKN060 13/05 Q1007 NOSIG

Time: 20:07 (17:07 UTC)

Forecast

The report was made 2 hours and 40 minutes ago, at 14:27 UTC
Forecast valid from 23 at 15 UTC to 24 at 15 UTC
Wind 6 kt from the West/Northwest
Visibility 10 km or more
Few clouds at a height of 3500 ft
Broken clouds at a height of 6000 ft
Becoming
from 24 at 06 UTC to 24 at 09 UTC
Wind 10 kt from the South/Southwest

TAF: EFHK 231427Z 2315/2415 30006KT 9999 FEW035 BKN060 BECMG 2406/2409 21010KT

Weather observations and forecasts of more than 4000 airports (METAR and TAF reports).

The available stations are represented by yellow and red dots on the map.

Hover mouse over dot to see the name of the station.

Then click to see weather observations and forecasts.

To change the map : click on the green buttons with a black cross to zoom in, on the green button with a dash to zoom out, or on the green arrows for adjacent maps.


METAR-TAF: